Time;durP1;ratioP1;P1;durP2;ratioP2;P2;SDS_P1;SDS_P2;PMS_P1;PMS_P2;Temp;Humidity;BMP_temperature;BMP_pressure;BME280_temperature;BME280_humidity;BME280_pressure;Samples;Min_cycle;Max_cycle;Signal;HPM_P1;HPM_P2
2021/01/27 09:09:50;;;;;;;100.80;50.47;;;;;;;0.42;79.22;98431.37;124359;1096;104430;-72
2021/01/27 09:12:26;;;;;;;105.37;52.07;;;;;;;0.52;79.53;98440.55;124167;1106;104264;-72
2021/01/27 09:14:53;;;;;;;112.57;51.40;;;;;;;0.69;79.46;98439.84;124706;1105;104258;-73
2021/01/27 09:17:20;;;;;;;114.07;54.47;;;;;;;0.83;79.28;98444.48;124188;1105;104261;-72
2021/01/27 09:19:55;;;;;;;101.40;53.53;;;;;;;0.93;79.37;98439.69;124398;1105;104185;-71
2021/01/27 09:22:25;;;;;;;;;;;;;;;0.99;79.22;98446.45;124322;1105;104256;-73
2021/01/27 09:24:56;;;;;;;118.27;55.30;;;;;;;1.03;79.14;98443.61;124264;1105;104210;-72
2021/01/27 09:27:30;;;;;;;98.20;44.63;;;;;;;1.09;79.25;98442.48;124384;1105;104283;-71
2021/01/27 09:30:11;;;;;;;81.27;44.03;;;;;;;1.00;79.06;98437.67;124238;1105;104280;-71
2021/01/27 09:32:43;;;;;;;89.53;45.30;;;;;;;0.95;79.42;98435.23;124242;1105;104214;-71
2021/01/27 09:35:20;;;;;;;79.90;42.90;;;;;;;0.88;79.28;98421.56;124266;1105;104184;-72
2021/01/27 09:37:58;;;;;;;95.53;44.00;;;;;;;0.84;79.27;98432.22;124244;1105;104236;-72
2021/01/27 09:40:30;;;;;;;76.87;40.30;;;;;;;0.83;78.90;98426.15;124270;1105;105900;-71
2021/01/27 09:43:13;;;;;;;82.60;42.53;;;;;;;0.85;79.04;98423.45;124214;1105;104158;-71
2021/01/27 09:45:47;;;;;;;85.87;42.07;;;;;;;0.89;79.19;98425.02;124225;1105;104272;-71
2021/01/27 09:48:19;;;;;;;86.20;43.40;;;;;;;0.98;79.10;98419.39;124729;1104;104210;-71
2021/01/27 09:51:00;;;;;;;82.03;41.83;;;;;;;1.09;78.97;98420.69;124242;1105;104267;-72
2021/01/27 09:53:37;;;;;;;85.43;44.40;;;;;;;1.16;79.25;98422.13;124800;1105;104616;-72
2021/01/27 09:56:10;;;;;;;70.70;35.90;;;;;;;1.22;79.29;98421.86;124299;1105;104258;-71
2021/01/27 09:58:40;;;;;;;97.45;49.20;;;;;;;1.27;79.51;98425.09;124239;1105;104233;-71
2021/01/27 10:01:18;;;;;;;80.37;39.93;;;;;;;1.32;79.05;98411.80;124250;1105;104162;-71
2021/01/27 10:03:54;;;;;;;73.50;40.37;;;;;;;1.30;79.05;98417.09;124218;1105;104255;-72
2021/01/27 10:06:45;;;;;;;88.83;45.30;;;;;;;1.26;79.26;98406.83;124866;1105;104155;-72
2021/01/27 10:09:26;;;;;;;89.23;47.07;;;;;;;1.21;79.39;98406.19;124231;1105;104255;-70
2021/01/27 10:12:06;;;;;;;86.60;45.97;;;;;;;1.17;78.84;98408.94;124211;1105;104338;-71
2021/01/27 10:14:38;;;;;;;86.93;44.77;;;;;;;1.13;79.18;98402.14;124356;1105;104322;-71
2021/01/27 10:17:09;;;;;;;84.27;44.83;;;;;;;1.06;79.02;98411.19;124194;1105;104181;-71
2021/01/27 10:19:39;;;;;;;81.50;43.65;;;;;;;1.02;79.70;98406.99;124284;1104;104194;-71
2021/01/27 10:22:07;;;;;;;91.00;47.40;;;;;;;1.00;79.19;98396.60;125200;1104;104624;-71
2021/01/27 10:24:53;;;;;;;90.17;46.67;;;;;;;1.02;79.52;98399.14;124462;1106;104312;-71
2021/01/27 10:27:40;;;;;;;83.80;44.80;;;;;;;0.98;79.56;98390.58;124186;1105;104216;-70
2021/01/27 10:30:34;;;;;;;89.00;48.73;;;;;;;0.85;79.38;98390.28;124191;1105;104220;-71
2021/01/27 10:33:01;;;;;;;91.93;48.27;;;;;;;0.73;79.57;98396.91;124228;1105;104261;-71
2021/01/27 10:35:32;;;;;;;84.30;44.90;;;;;;;0.70;79.94;98398.79;124171;1105;104251;-71
2021/01/27 10:38:05;;;;;;;90.63;47.53;;;;;;;0.60;79.80;98393.11;124302;1105;104181;-71
2021/01/27 10:40:32;;;;;;;98.07;47.17;;;;;;;0.56;79.29;98386.30;124286;1105;104289;-71
2021/01/27 10:43:02;;;;;;;101.37;49.77;;;;;;;0.53;79.75;98394.28;124176;1105;104157;-71
2021/01/27 10:45:32;;;;;;;100.93;49.17;;;;;;;0.50;79.75;98379.57;124119;1105;104207;-70
2021/01/27 10:48:10;;;;;;;102.60;51.03;;;;;;;0.50;79.85;98387.42;124171;1105;104246;-71
2021/01/27 10:50:47;;;;;;;113.80;57.57;;;;;;;0.54;79.78;98386.38;124181;1105;104249;-71
2021/01/27 10:53:43;;;;;;;108.50;54.55;;;;;;;0.55;79.85;98375.00;124252;1105;104255;-71
2021/01/27 10:56:16;;;;;;;101.30;52.57;;;;;;;0.53;79.54;98381.19;124236;1105;104245;-71
2021/01/27 10:58:44;;;;;;;;;;;;;;;0.47;79.54;98377.08;124026;1105;104220;-71
2021/01/27 11:01:11;;;;;;;62.30;34.95;;;;;;;0.38;79.48;98377.47;124124;1105;104191;-70
2021/01/27 11:03:39;;;;;;;65.67;34.87;;;;;;;0.29;79.43;98366.47;124286;1105;104187;-71
2021/01/27 11:06:07;;;;;;;65.80;34.60;;;;;;;0.29;79.63;98363.85;124212;1105;104150;-71
2021/01/27 11:08:36;;;;;;;60.03;31.20;;;;;;;0.25;80.17;98372.73;124065;1105;104258;-71
2021/01/27 11:11:05;;;;;;;61.17;31.07;;;;;;;0.24;79.68;98376.27;124124;1105;104166;-71
2021/01/27 11:13:35;;;;;;;59.77;29.00;;;;;;;0.25;79.67;98371.91;124086;1105;104248;-70
2021/01/27 11:16:06;;;;;;;58.83;27.00;;;;;;;0.26;79.56;98373.61;124162;1105;104172;-71
2021/01/27 11:18:36;;;;;;;50.70;26.43;;;;;;;0.26;79.61;98378.84;124218;1105;104335;-72
2021/01/27 11:21:05;;;;;;;54.17;26.20;;;;;;;0.23;79.82;98382.41;124160;1105;104184;-72
2021/01/27 11:23:32;;;;;;;54.23;27.13;;;;;;;0.23;79.65;98387.64;124240;1105;104249;-74
2021/01/27 11:25:59;;;;;;;51.20;25.00;;;;;;;0.23;79.74;98386.81;124233;1105;104178;-75
2021/01/27 11:28:27;;;;;;;55.83;27.57;;;;;;;0.22;79.85;98385.95;124112;1105;102895;-72
2021/01/27 11:30:55;;;;;;;51.60;25.23;;;;;;;0.24;79.71;98376.27;124588;1105;104258;-74
2021/01/27 11:33:24;;;;;;;48.30;25.60;;;;;;;0.31;79.92;98381.25;124067;1105;104188;-73
2021/01/27 11:35:54;;;;;;;56.27;26.77;;;;;;;0.32;79.75;98375.10;124270;1105;104162;-73
2021/01/27 11:38:21;;;;;;;53.30;28.00;;;;;;;0.34;79.67;98375.89;124190;1105;104830;-74
2021/01/27 11:40:48;;;;;;;58.67;26.73;;;;;;;0.37;79.65;98378.38;124131;1105;104171;-72
2021/01/27 11:43:16;;;;;;;48.70;25.43;;;;;;;0.38;80.11;98386.19;124230;1105;104178;-72
2021/01/27 11:45:43;;;;;;;52.97;26.40;;;;;;;0.37;79.81;98387.09;124167;1105;104241;-73
2021/01/27 11:48:31;;;;;;;60.43;30.93;;;;;;;0.36;79.69;98381.91;124264;1105;104229;-72
2021/01/27 11:50:59;;;;;;;52.85;26.05;;;;;;;0.37;79.87;98389.72;124251;1105;104194;-73
2021/01/27 11:53:27;;;;;;;57.73;28.37;;;;;;;0.33;79.80;98387.27;124300;1105;104220;-72
2021/01/27 11:55:54;;;;;;;56.20;29.00;;;;;;;0.34;79.59;98387.22;124197;1105;104178;-72
2021/01/27 11:58:22;;;;;;;53.47;28.50;;;;;;;0.32;79.88;98389.05;124147;1105;104331;-74
2021/01/27 12:00:49;;;;;;;45.87;24.67;;;;;;;0.31;79.73;98395.20;124232;1105;104287;-73
2021/01/27 12:03:16;;;;;;;50.65;24.00;;;;;;;0.32;79.55;98396.03;124198;1105;104236;-72
2021/01/27 12:05:44;;;;;;;53.67;27.60;;;;;;;0.35;79.94;98403.76;124167;1105;104193;-78
2021/01/27 12:08:12;;;;;;;53.27;25.70;;;;;;;0.38;79.74;98404.50;124108;1105;104755;-72
2021/01/27 12:10:39;;;;;;;47.57;23.53;;;;;;;0.43;79.75;98404.30;124131;1105;104182;-76
2021/01/27 12:13:06;;;;;;;47.33;25.60;;;;;;;0.47;79.85;98403.25;124115;1105;104351;-72
2021/01/27 12:15:33;;;;;;;52.27;25.93;;;;;;;0.50;79.57;98404.88;124183;1105;104267;-71
2021/01/27 12:18:00;;;;;;;41.50;21.90;;;;;;;0.52;79.97;98401.30;124161;1105;104261;-72
2021/01/27 12:20:27;;;;;;;41.27;22.43;;;;;;;0.48;79.66;98399.72;124178;1105;104252;-70
2021/01/27 12:22:57;;;;;;;48.73;25.87;;;;;;;0.49;80.09;98404.04;124188;1105;104254;-71
2021/01/27 12:25:25;;;;;;;49.50;25.50;;;;;;;0.52;80.13;98401.30;124233;1106;104258;-72
2021/01/27 12:27:52;;;;;;;54.97;26.80;;;;;;;0.57;80.17;98396.72;124158;1105;104312;-71
2021/01/27 12:30:19;;;;;;;52.30;28.40;;;;;;;0.60;79.83;98400.95;124258;1105;104156;-71
2021/01/27 12:32:48;;;;;;;57.35;28.90;;;;;;;0.61;79.95;98402.66;124286;1105;104242;-72
2021/01/27 12:35:18;;;;;;;57.53;32.30;;;;;;;0.62;80.02;98403.49;124141;1105;104152;-71
2021/01/27 12:37:46;;;;;;;61.10;31.70;;;;;;;0.63;80.14;98411.30;124264;1105;104159;-72
2021/01/27 12:40:16;;;;;;;52.53;29.87;;;;;;;0.60;80.24;98411.43;124081;1105;104933;-72
2021/01/27 12:42:44;;;;;;;61.87;32.13;;;;;;;0.55;79.85;98409.02;124161;1105;104332;-71
2021/01/27 12:45:14;;;;;;;60.63;31.83;;;;;;;0.55;80.27;98403.78;124207;1105;104242;-72
2021/01/27 12:47:42;;;;;;;60.23;31.10;;;;;;;0.51;79.95;98406.58;124176;1105;104262;-72
2021/01/27 12:50:13;;;;;;;55.97;30.60;;;;;;;0.49;80.38;98411.89;124214;1105;104181;-73
2021/01/27 12:52:42;;;;;;;63.80;33.35;;;;;;;0.48;79.74;98411.94;124219;1105;104271;-73
2021/01/27 12:55:13;;;;;;;66.90;34.77;;;;;;;0.47;79.86;98403.25;124195;1105;104252;-72
2021/01/27 12:57:43;;;;;;;65.37;34.20;;;;;;;0.48;80.21;98415.42;124610;1105;104178;-72
2021/01/27 13:00:16;;;;;;;69.67;35.10;;;;;;;0.48;80.15;98415.42;124240;1105;104192;-72
2021/01/27 13:02:43;;;;;;;58.23;29.60;;;;;;;0.50;80.12;98420.58;124355;1105;104162;-72
2021/01/27 13:05:12;;;;;;;63.17;32.13;;;;;;;0.44;80.29;98419.91;124349;1105;104162;-71
2021/01/27 13:07:40;;;;;;;59.00;29.60;;;;;;;0.45;80.26;98410.31;124303;1105;104179;-72
2021/01/27 13:10:09;;;;;;;62.27;30.63;;;;;;;0.41;80.08;98421.81;124982;1105;104303;-72
2021/01/27 13:12:38;;;;;;;62.80;32.30;;;;;;;0.41;79.94;98425.27;124233;1105;104190;-71
2021/01/27 13:15:13;;;;;;;56.90;30.43;;;;;;;0.40;80.23;98426.22;124314;1106;104169;-72
2021/01/27 13:17:49;;;;;;;60.10;30.77;;;;;;;0.41;80.24;98432.28;124285;1105;104162;-71
2021/01/27 13:20:21;;;;;;;52.43;28.00;;;;;;;0.40;80.30;98435.81;124313;1105;104844;-72
2021/01/27 13:22:49;;;;;;;54.60;28.60;;;;;;;0.37;80.22;98438.56;124296;1105;104163;-72
2021/01/27 13:25:19;;;;;;;47.37;23.03;;;;;;;0.33;80.37;98443.08;124176;1105;104274;-72
2021/01/27 13:28:04;;;;;;;55.47;28.33;;;;;;;0.27;80.13;98441.54;124548;1105;104184;-73
2021/01/27 13:30:36;;;;;;;55.03;29.37;;;;;;;0.28;80.47;98443.25;124197;1105;104185;-70
2021/01/27 13:33:08;;;;;;;55.50;27.43;;;;;;;0.31;80.02;98436.19;124352;1105;104319;-72
2021/01/27 13:35:36;;;;;;;56.37;30.27;;;;;;;0.29;79.92;98442.33;124334;1105;104242;-73
2021/01/27 13:38:03;;;;;;;57.75;29.60;;;;;;;0.23;80.27;98436.51;124260;1105;104319;-73
2021/01/27 13:40:30;;;;;;;65.62;34.88;;;;;;;0.23;80.36;98433.89;124317;1105;105009;-73
2021/01/27 13:42:58;;;;;;;54.90;28.67;;;;;;;0.20;80.58;98434.02;124288;1106;104803;-73
2021/01/27 13:45:29;;;;;;;47.27;24.30;;;;;;;0.12;80.00;98432.56;124339;1105;104245;-72
2021/01/27 13:47:59;;;;;;;61.33;32.47;;;;;;;0.05;80.26;98438.11;124296;1105;104259;-74
2021/01/27 13:50:29;;;;;;;57.50;30.07;;;;;;;0.03;80.64;98438.15;124102;1105;104219;-73
2021/01/27 13:52:59;;;;;;;59.70;31.10;;;;;;;0.03;80.18;98435.53;124267;1105;104331;-76
2021/01/27 13:55:29;;;;;;;59.17;31.40;;;;;;;0.03;79.96;98437.31;124320;1105;104162;-73
2021/01/27 13:57:56;;;;;;;56.07;29.07;;;;;;;0.02;79.97;98436.45;124297;1105;104642;-72
2021/01/27 14:00:29;;;;;;;56.60;26.67;;;;;;;0.02;80.94;98439.06;124313;1105;104488;-73
2021/01/27 14:02:56;;;;;;;62.50;32.60;;;;;;;-0.04;80.62;98444.56;124306;1105;104157;-72
2021/01/27 14:05:26;;;;;;;61.73;32.03;;;;;;;-0.06;80.96;98447.22;124317;1105;101767;-71
2021/01/27 14:07:55;;;;;;;74.23;36.63;;;;;;;-0.05;80.75;98442.86;124329;1106;104310;-72
2021/01/27 14:10:30;;;;;;;70.43;35.27;;;;;;;-0.10;80.34;98443.02;124194;1105;104256;-70
2021/01/27 14:12:58;;;;;;;65.40;35.60;;;;;;;-0.10;80.49;98444.80;124725;1105;104165;-71
2021/01/27 14:15:28;;;;;;;65.00;32.85;;;;;;;-0.12;80.34;98444.00;123756;1105;104268;-70
2021/01/27 14:17:58;;;;;;;68.13;33.63;;;;;;;-0.19;80.46;98438.14;124107;1105;104271;-71
2021/01/27 14:20:32;;;;;;;65.10;33.37;;;;;;;-0.21;80.19;98445.22;124147;1105;104221;-71
2021/01/27 14:22:59;;;;;;;71.62;37.83;;;;;;;-0.23;80.35;98445.27;123892;1105;104223;-71
2021/01/27 14:25:26;;;;;;;60.93;31.70;;;;;;;-0.23;80.96;98447.88;124200;1105;104195;-71
2021/01/27 14:27:56;;;;;;;51.68;25.57;;;;;;;-0.25;80.54;98444.47;124224;1105;104255;-70
2021/01/27 14:30:27;;;;;;;60.77;30.97;;;;;;;-0.31;80.19;98442.95;126331;1104;103075;-70
2021/01/27 14:32:55;;;;;;;61.87;33.27;;;;;;;-0.34;80.83;98437.84;124484;1105;104294;-71
2021/01/27 14:35:25;;;;;;;59.53;31.50;;;;;;;-0.33;80.86;98436.94;123868;1105;104156;-71
2021/01/27 14:37:52;;;;;;;59.07;33.03;;;;;;;-0.32;80.65;98435.16;123822;1105;104240;-70
2021/01/27 14:40:21;;;;;;;59.53;32.47;;;;;;;-0.34;80.99;98444.81;126372;1104;103085;-70
2021/01/27 14:42:48;;;;;;;48.90;25.85;;;;;;;-0.36;80.80;98437.05;124961;1104;104185;-71
2021/01/27 14:45:16;;;;;;;50.87;26.23;;;;;;;-0.39;80.43;98434.55;124106;1105;104865;-72
2021/01/27 14:48:05;;;;;;;57.60;29.85;;;;;;;-0.42;80.33;98434.67;124273;1105;104185;-72
2021/01/27 14:50:33;;;;;;;50.60;26.67;;;;;;;-0.42;80.92;98445.12;124279;1105;104705;-74
2021/01/27 14:53:05;;;;;;;66.33;34.30;;;;;;;-0.44;80.71;98449.55;124369;1105;104155;-70
2021/01/27 14:55:33;;;;;;;63.33;33.10;;;;;;;-0.47;80.90;98436.59;124248;1105;104230;-72
2021/01/27 14:58:03;;;;;;;65.50;35.27;;;;;;;-0.49;80.55;98444.51;124178;1105;104307;-72
2021/01/27 15:00:32;;;;;;;67.10;34.37;;;;;;;-0.48;81.02;98453.19;124289;1105;104256;-71
2021/01/27 15:03:00;;;;;;;63.50;33.63;;;;;;;-0.50;80.21;98453.26;124211;1105;104265;-72
2021/01/27 15:05:28;;;;;;;69.93;36.87;;;;;;;-0.50;80.51;98449.77;123939;1106;104351;-71
2021/01/27 15:07:59;;;;;;;71.93;37.53;;;;;;;-0.50;81.01;98455.00;124187;1105;104162;-72
2021/01/27 15:10:28;;;;;;;68.67;38.07;;;;;;;-0.51;80.97;98458.52;124133;1105;104312;-72
2021/01/27 15:12:57;;;;;;;69.63;36.13;;;;;;;-0.57;80.54;98459.61;124233;1105;104191;-73
2021/01/27 15:15:25;;;;;;;67.70;33.53;;;;;;;-0.60;80.62;98462.34;124256;1105;104910;-72
2021/01/27 15:17:53;;;;;;;61.70;32.90;;;;;;;-0.64;80.96;98461.61;124239;1105;104243;-74
2021/01/27 15:20:25;;;;;;;51.17;27.53;;;;;;;-0.71;80.56;98467.09;124278;1105;104156;-71
2021/01/27 15:22:53;;;;;;;61.87;32.70;;;;;;;-0.79;81.08;98465.61;124330;1105;104262;-73
2021/01/27 15:25:21;;;;;;;64.40;34.70;;;;;;;-0.82;80.40;98470.10;124237;1105;104400;-71
2021/01/27 15:27:53;;;;;;;63.80;33.80;;;;;;;-0.83;80.57;98474.48;124269;1105;104379;-70
2021/01/27 15:30:27;;;;;;;74.90;37.87;;;;;;;-0.81;80.43;98477.86;124269;1105;104168;-72
2021/01/27 15:32:56;;;;;;;68.73;34.87;;;;;;;-0.81;80.31;98475.25;124282;1105;104258;-70
2021/01/27 15:35:25;;;;;;;54.67;28.20;;;;;;;-0.84;81.01;98479.74;124308;1105;104312;-71
2021/01/27 15:38:07;;;;;;;66.27;35.97;;;;;;;-0.91;80.33;98472.12;124312;1105;104185;-72
2021/01/27 15:40:37;;;;;;;67.67;35.73;;;;;;;-0.92;80.86;98474.80;124323;1105;104293;-71
2021/01/27 15:43:17;;;;;;;75.67;40.63;;;;;;;-0.94;81.06;98474.84;124265;1105;104267;-72
2021/01/27 15:45:49;;;;;;;67.17;36.53;;;;;;;-0.97;80.43;98474.95;124286;1105;104258;-71
2021/01/27 15:48:18;;;;;;;68.20;38.77;;;;;;;-1.00;80.33;98477.66;123920;1106;104287;-72
2021/01/27 15:50:47;;;;;;;80.20;41.90;;;;;;;-1.01;80.92;98478.57;123965;1105;104322;-73
2021/01/27 15:53:17;;;;;;;74.70;37.47;;;;;;;-1.02;80.78;98476.03;124319;1106;104874;-68
2021/01/27 15:55:46;;;;;;;63.57;33.23;;;;;;;-1.03;80.54;98483.02;124098;1106;104236;-73
2021/01/27 15:58:14;;;;;;;74.13;38.23;;;;;;;-1.05;80.22;98472.62;124170;1105;104233;-71
2021/01/27 16:00:41;;;;;;;68.17;33.67;;;;;;;-1.03;80.55;98469.10;124215;1105;104163;-71
2021/01/27 16:03:11;;;;;;;73.50;38.97;;;;;;;-1.06;80.75;98477.91;123969;1105;104624;-72
2021/01/27 16:05:38;;;;;;;59.23;28.63;;;;;;;-1.08;81.14;98479.72;124129;1105;104322;-73
2021/01/27 16:08:07;;;;;;;49.87;24.90;;;;;;;-1.14;80.12;98477.31;124162;1105;104214;-74
2021/01/27 16:10:37;;;;;;;78.67;39.03;;;;;;;-1.18;80.80;98484.37;124194;1105;104316;-73
2021/01/27 16:13:11;;;;;;;79.70;41.40;;;;;;;-1.20;80.71;98471.39;124315;1105;104258;-71
2021/01/27 16:15:39;;;;;;;86.37;41.27;;;;;;;-1.17;80.54;98473.03;124245;1105;104235;-72
2021/01/27 16:18:11;;;;;;;103.57;48.13;;;;;;;-1.15;81.05;98476.45;124272;1105;104411;-72
2021/01/27 16:20:40;;;;;;;94.27;45.63;;;;;;;-1.12;80.48;98472.89;123795;1106;104209;-74
2021/01/27 16:23:31;;;;;;;101.63;48.47;;;;;;;-1.14;80.21;98472.93;124119;1105;104182;-72
2021/01/27 16:26:00;;;;;;;116.47;51.83;;;;;;;-1.13;81.56;98466.80;124161;1105;104221;-71
2021/01/27 16:28:31;;;;;;;98.17;46.83;;;;;;;-1.12;80.47;98460.68;123943;1105;104165;-70
2021/01/27 16:31:04;;;;;;;101.80;48.63;;;;;;;-1.14;80.79;98459.88;124024;1105;104162;-70
2021/01/27 16:33:33;;;;;;;88.50;44.90;;;;;;;-1.18;80.75;98447.84;124194;1105;104217;-72
2021/01/27 16:36:02;;;;;;;106.10;49.90;;;;;;;-1.20;80.28;98454.87;124227;1106;104334;-73
2021/01/27 16:38:29;;;;;;;95.50;47.53;;;;;;;-1.17;80.46;98457.38;123901;1105;104363;-73
2021/01/27 16:41:00;;;;;;;88.97;44.67;;;;;;;-1.17;81.44;98449.55;124143;1105;104191;-73
2021/01/27 16:43:31;;;;;;;92.70;47.37;;;;;;;-1.17;81.36;98443.48;123952;1105;104387;-72
2021/01/27 16:45:58;;;;;;;98.07;46.07;;;;;;;-1.23;80.54;98450.62;124088;1105;104195;-71
2021/01/27 16:48:29;;;;;;;106.73;52.13;;;;;;;-1.24;80.70;98451.52;124169;1105;104191;-72
2021/01/27 16:50:57;;;;;;;85.40;44.40;;;;;;;-1.23;81.24;98449.78;124050;1106;103731;-71
2021/01/27 16:53:24;;;;;;;92.70;42.83;;;;;;;-1.27;80.44;98443.80;124068;1105;104184;-72
2021/01/27 16:55:51;;;;;;;93.77;43.60;;;;;;;-1.28;80.97;98439.48;124180;1104;104192;-71
2021/01/27 16:58:18;;;;;;;101.70;47.00;;;;;;;-1.30;81.08;98443.91;124011;1105;104165;-72
2021/01/27 17:00:45;;;;;;;110.32;48.30;;;;;;;-1.30;80.42;98430.86;124116;1105;104268;-71
2021/01/27 17:03:13;;;;;;;118.00;52.35;;;;;;;-1.30;80.60;98430.02;124012;1105;104162;-72
2021/01/27 17:05:41;;;;;;;103.53;48.48;;;;;;;-1.32;80.95;98429.22;123882;1105;104332;-74
2021/01/27 17:08:11;;;;;;;110.97;51.50;;;;;;;-1.29;80.53;98421.28;123842;1105;104351;-74
2021/01/27 17:10:41;;;;;;;116.50;54.10;;;;;;;-1.25;81.21;98420.28;124020;1105;104178;-74
2021/01/27 17:13:10;;;;;;;128.80;62.87;;;;;;;-1.21;80.90;98425.33;124115;1105;104254;-72
2021/01/27 17:15:39;;;;;;;126.93;62.17;;;;;;;-1.17;81.47;98422.61;124153;1105;104213;-71
2021/01/27 17:18:07;;;;;;;128.47;60.90;;;;;;;-1.16;81.35;98419.09;124234;1105;104181;-72
2021/01/27 17:20:36;;;;;;;131.57;63.53;;;;;;;-1.15;80.88;98415.58;123835;1105;104411;-73
2021/01/27 17:23:03;;;;;;;135.13;63.47;;;;;;;-1.18;80.58;98419.12;123865;1105;104351;-72
2021/01/27 17:25:31;;;;;;;130.53;63.10;;;;;;;-1.18;81.40;98426.95;124160;1105;104265;-72
2021/01/27 17:28:00;;;;;;;128.27;59.83;;;;;;;-1.16;81.04;98435.59;124119;1105;104207;-70
2021/01/27 17:30:28;;;;;;;130.47;59.37;;;;;;;-1.15;80.97;98432.08;123901;1106;104311;-73
2021/01/27 17:33:00;;;;;;;118.60;52.30;;;;;;;-1.15;80.93;98432.08;123843;1105;104354;-71
2021/01/27 17:35:29;;;;;;;121.77;53.03;;;;;;;-1.14;81.32;98432.94;123814;1105;104242;-72
2021/01/27 17:37:57;;;;;;;132.20;59.63;;;;;;;-1.13;81.43;98429.42;124187;1105;104229;-71
2021/01/27 17:40:26;;;;;;;121.87;52.47;;;;;;;-1.13;80.52;98429.42;123750;1106;104184;-75
2021/01/27 17:42:56;;;;;;;122.67;51.90;;;;;;;-1.14;81.23;98436.39;124045;1105;104223;-72
2021/01/27 17:45:27;;;;;;;115.60;47.67;;;;;;;-1.18;81.19;98434.79;124089;1105;104322;-72
2021/01/27 17:47:55;;;;;;;110.53;51.07;;;;;;;-1.19;81.49;98435.70;123881;1105;104637;-72
2021/01/27 17:50:25;;;;;;;104.47;46.03;;;;;;;-1.18;81.51;98433.95;124030;1105;104238;-71
2021/01/27 17:52:53;;;;;;;110.97;48.03;;;;;;;-1.21;81.42;98438.37;124079;1105;104322;-72
2021/01/27 17:55:25;;;;;;;107.67;46.60;;;;;;;-1.20;80.49;98440.08;124286;1105;104259;-71
2021/01/27 17:57:53;;;;;;;98.80;45.85;;;;;;;-1.16;80.34;98447.80;124210;1105;104156;-74
2021/01/27 18:00:26;;;;;;;98.17;43.23;;;;;;;-1.16;81.54;98437.36;124048;1105;104267;-75
2021/01/27 18:02:57;;;;;;;86.80;40.80;;;;;;;-1.17;80.29;98440.88;124067;1105;104188;-72
2021/01/27 18:05:28;;;;;;;87.30;39.43;;;;;;;-1.19;81.34;98438.30;123943;1105;104239;-72
2021/01/27 18:07:56;;;;;;;93.23;41.30;;;;;;;-1.20;81.49;98447.04;124129;1105;104303;-73
2021/01/27 18:10:24;;;;;;;91.75;41.00;;;;;;;-1.20;81.03;98442.69;124104;1105;104236;-71
2021/01/27 18:12:52;;;;;;;86.93;41.17;;;;;;;-1.18;81.15;98436.56;124006;1105;104224;-71
2021/01/27 18:15:22;;;;;;;89.60;41.40;;;;;;;-1.16;80.50;98439.97;123827;1105;104334;-71
2021/01/27 18:17:49;;;;;;;80.67;38.10;;;;;;;-1.15;80.95;98434.69;123827;1105;104220;-70
2021/01/27 18:20:23;;;;;;;76.93;33.80;;;;;;;-1.16;80.26;98434.75;124140;1105;104239;-71
2021/01/27 18:22:51;;;;;;;93.95;44.42;;;;;;;-1.20;80.32;98439.21;123867;1105;104191;-71
2021/01/27 18:25:22;;;;;;;91.27;44.77;;;;;;;-1.18;81.52;98442.62;124037;1106;104168;-71
2021/01/27 18:27:49;;;;;;;86.60;41.40;;;;;;;-1.15;80.62;98452.12;124127;1105;104268;-71
2021/01/27 18:30:23;;;;;;;90.87;43.73;;;;;;;-1.13;81.48;98447.70;124291;1105;104188;-73
2021/01/27 18:32:50;;;;;;;87.73;41.27;;;;;;;-1.13;80.96;98445.09;124260;1106;104377;-72
2021/01/27 18:35:20;;;;;;;80.57;38.83;;;;;;;-1.12;80.98;98452.84;124283;1105;104167;-71
2021/01/27 18:37:48;;;;;;;86.00;38.37;;;;;;;-1.12;80.38;98449.41;124267;1105;104264;-70
2021/01/27 18:40:18;;;;;;;93.30;46.03;;;;;;;-1.12;81.31;98454.63;124239;1105;104277;-70
2021/01/27 18:42:46;;;;;;;92.43;43.83;;;;;;;-1.11;81.06;98454.55;124236;1105;104297;-72
2021/01/27 18:45:17;;;;;;;98.33;45.13;;;;;;;-1.08;80.69;98451.00;124025;1105;104232;-73
2021/01/27 18:47:44;;;;;;;92.60;42.50;;;;;;;-1.07;81.31;98443.10;123972;1105;104249;-72
2021/01/27 18:50:12;;;;;;;88.73;43.00;;;;;;;-1.08;80.62;98451.84;124043;1106;104211;-73
2021/01/27 18:52:40;;;;;;;96.73;41.87;;;;;;;-1.07;81.30;98452.70;124239;1104;104188;-72
2021/01/27 18:55:09;;;;;;;97.93;45.73;;;;;;;-1.08;81.40;98456.22;124042;1105;104175;-73
2021/01/27 18:57:37;;;;;;;96.70;43.53;;;;;;;-1.08;81.41;98461.45;123990;1105;104236;-73
2021/01/27 19:00:08;;;;;;;109.87;50.70;;;;;;;-1.05;80.75;98458.73;124114;1105;104877;-72
2021/01/27 19:02:37;;;;;;;109.83;50.07;;;;;;;-1.00;81.06;98454.17;125925;1105;101979;-72
2021/01/27 19:05:05;;;;;;;114.73;47.57;;;;;;;-0.95;81.57;98459.25;126270;1105;102159;-73
2021/01/27 19:07:34;;;;;;;110.20;51.70;;;;;;;-0.91;80.90;98458.23;125260;1105;104288;-73
2021/01/27 19:10:02;;;;;;;110.83;51.73;;;;;;;-0.88;81.16;98454.65;124292;1104;104223;-74
2021/01/27 19:12:29;;;;;;;104.90;49.87;;;;;;;-0.87;80.85;98448.52;124217;1105;104210;-72
2021/01/27 19:14:56;;;;;;;94.23;41.73;;;;;;;-0.90;81.28;98454.72;124022;1105;104290;-73
2021/01/27 19:17:25;;;;;;;93.53;44.43;;;;;;;-0.95;80.28;98448.80;124303;1105;104268;-73
2021/01/27 19:19:53;;;;;;;108.43;47.07;;;;;;;-0.95;80.52;98451.41;124266;1105;104269;-74
2021/01/27 19:22:20;;;;;;;86.10;39.73;;;;;;;-0.97;81.06;98451.45;124240;1105;104171;-73
2021/01/27 19:24:47;;;;;;;100.00;45.60;;;;;;;-1.00;81.13;98446.34;124268;1105;104411;-74
2021/01/27 19:27:14;;;;;;;87.23;40.47;;;;;;;-1.02;81.13;98450.80;124232;1105;104165;-72
2021/01/27 19:29:44;;;;;;;85.47;43.10;;;;;;;-1.02;80.55;98455.14;124245;1105;104240;-72
2021/01/27 19:32:15;;;;;;;91.07;45.70;;;;;;;-1.01;80.41;98456.84;124272;1105;104258;-72
2021/01/27 19:34:42;;;;;;;90.77;42.50;;;;;;;-1.01;80.67;98460.30;124286;1105;104253;-72
2021/01/27 19:37:12;;;;;;;78.30;36.40;;;;;;;-1.03;80.35;98464.75;124278;1105;104258;-71
2021/01/27 19:39:39;;;;;;;85.77;42.40;;;;;;;-1.03;80.61;98469.10;124217;1105;104216;-73
2021/01/27 19:42:06;;;;;;;88.75;39.80;;;;;;;-1.02;80.94;98471.67;124172;1105;104160;-71
2021/01/27 19:44:34;;;;;;;78.75;38.25;;;;;;;-1.02;81.11;98468.20;125146;1105;104165;-74
2021/01/27 19:47:01;;;;;;;78.30;40.58;;;;;;;-1.01;80.69;98468.13;124021;1105;104166;-73
2021/01/27 19:49:28;;;;;;;83.43;40.13;;;;;;;-0.97;80.79;98468.89;123973;1105;104307;-73
2021/01/27 19:51:56;;;;;;;78.60;40.47;;;;;;;-0.96;81.10;98466.21;124061;1105;104219;-75
2021/01/27 19:54:24;;;;;;;63.43;30.80;;;;;;;-0.99;80.92;98462.87;124038;1105;104181;-73
2021/01/27 19:56:51;;;;;;;79.67;37.93;;;;;;;-1.03;80.61;98454.31;124050;1105;104187;-73
2021/01/27 19:59:19;;;;;;;77.53;35.50;;;;;;;-1.03;80.87;98464.75;124182;1105;104287;-74
2021/01/27 20:01:48;;;;;;;67.70;36.03;;;;;;;-1.06;80.96;98463.08;123748;1105;104316;-75
2021/01/27 20:04:16;;;;;;;78.20;36.85;;;;;;;-1.09;80.80;98460.58;124158;1105;104179;-76
2021/01/27 20:06:43;;;;;;;80.83;39.43;;;;;;;-1.07;80.99;98468.37;124236;1105;104179;-73
2021/01/27 20:09:10;;;;;;;83.90;40.90;;;;;;;-1.08;80.50;98467.50;124026;1105;104261;-74
2021/01/27 20:11:37;;;;;;;73.60;35.90;;;;;;;-1.08;80.53;98474.50;124309;1105;104213;-74
2021/01/27 20:14:05;;;;;;;68.85;35.60;;;;;;;-1.10;81.28;98473.70;124314;1105;104211;-74
2021/01/27 20:16:33;;;;;;;72.30;35.50;;;;;;;-1.15;80.33;98466.00;124274;1105;104236;-74
2021/01/27 20:19:01;;;;;;;67.00;34.47;;;;;;;-1.16;80.82;98469.52;124276;1105;104270;-72
2021/01/27 20:21:40;;;;;;;68.50;33.97;;;;;;;-1.15;80.77;98466.00;124265;1105;104255;-73
2021/01/27 20:24:09;;;;;;;67.43;34.00;;;;;;;-1.12;81.74;98472.89;124295;1105;104233;-73
2021/01/27 20:26:38;;;;;;;68.80;33.83;;;;;;;-1.14;80.78;98466.88;124054;1105;104329;-73